createdAt,value
2022-11-02T00:02:10.921Z,99164.66
2022-11-02T00:04:37.641Z,99157.97
2022-11-02T00:07:04.214Z,99163.28
2022-11-02T00:09:30.901Z,99162.44
2022-11-02T00:11:57.594Z,99159.88
2022-11-02T00:14:24.304Z,99169.78
2022-11-02T00:16:51.260Z,99160.84
2022-11-02T00:19:18.227Z,99173.78
2022-11-02T00:21:44.915Z,99166.50
2022-11-02T00:24:12.539Z,99160.53
2022-11-02T00:26:39.247Z,99156.22
2022-11-02T00:29:06.506Z,99153.50
2022-11-02T00:31:33.251Z,99155.91
2022-11-02T00:33:59.922Z,99164.31
2022-11-02T00:36:27.814Z,99160.94
2022-11-02T00:38:54.514Z,99172.13
2022-11-02T00:41:22.081Z,99167.94
2022-11-02T00:43:48.741Z,99174.06
2022-11-02T00:46:15.312Z,99163.19
2022-11-02T00:48:42.406Z,99163.38
2022-11-02T00:51:09.729Z,99162.84
2022-11-02T00:53:36.823Z,99166.88
2022-11-02T00:56:03.510Z,99166.31
2022-11-02T00:58:30.195Z,99153.09
2022-11-02T01:00:57.752Z,99162.63
2022-11-02T01:03:25.667Z,99160.94
2022-11-02T01:05:52.250Z,99155.53
2022-11-02T01:08:18.836Z,99163.25
2022-11-02T01:10:48.159Z,99161.09
2022-11-02T01:13:16.930Z,99156.13
2022-11-02T01:15:43.526Z,99160.22
2022-11-02T01:18:10.172Z,99162.94
2022-11-02T01:20:36.744Z,99155.00
2022-11-02T01:23:03.464Z,99155.53
2022-11-02T01:25:30.326Z,99162.63
2022-11-02T01:27:56.969Z,99166.09
2022-11-02T01:30:23.565Z,99165.41
2022-11-02T01:32:50.205Z,99166.59
2022-11-02T01:35:16.942Z,99156.41
2022-11-02T01:37:43.559Z,99155.28
2022-11-02T01:40:10.646Z,99154.38
2022-11-02T01:42:37.293Z,99147.63
2022-11-02T01:45:04.113Z,99154.59
2022-11-02T01:47:35.511Z,99150.38
2022-11-02T01:50:22.692Z,99144.34
2022-11-02T01:52:49.622Z,99155.66
2022-11-02T01:55:21.142Z,99143.78
2022-11-02T01:57:53.703Z,99151.44
2022-11-02T02:00:20.408Z,99152.41
2022-11-02T02:03:07.298Z,99153.03
2022-11-02T02:05:38.780Z,99151.56
2022-11-02T02:08:05.778Z,99147.41
2022-11-02T02:10:32.783Z,99149.44
2022-11-02T02:12:59.557Z,99152.00
2022-11-02T02:15:39.078Z,99137.84
2022-11-02T02:18:35.193Z,99143.19
2022-11-02T02:21:17.160Z,99142.50
2022-11-02T02:24:22.856Z,99141.78
2022-11-02T02:27:30.665Z,99143.75
2022-11-02T02:30:03.323Z,99141.75
2022-11-02T02:32:49.685Z,99144.22
2022-11-02T02:35:39.936Z,99140.97
2022-11-02T02:38:39.466Z,99138.38
2022-11-02T02:41:14.460Z,99141.09
2022-11-02T02:43:49.466Z,99137.31
2022-11-02T02:46:24.012Z,99130.13
2022-11-02T02:48:54.539Z,99131.03
2022-11-02T02:51:30.459Z,99125.69
2022-11-02T02:54:08.833Z,99131.31
2022-11-02T02:59:24.272Z,99130.28
2022-11-02T03:01:51.309Z,99132.91
2022-11-02T03:04:18.012Z,99133.88
2022-11-02T03:06:58.604Z,99122.84
2022-11-02T03:09:50.852Z,99130.69
2022-11-02T03:12:32.930Z,99128.81
2022-11-02T03:15:11.143Z,99119.38
2022-11-02T03:17:50.510Z,99116.41
2022-11-02T03:20:28.549Z,99123.13
2022-11-02T03:23:02.395Z,99120.88
2022-11-02T03:26:15.201Z,99123.81
2022-11-02T03:29:03.481Z,99111.19
2022-11-02T03:31:54.883Z,99115.91
2022-11-02T03:34:38.549Z,99117.63
2022-11-02T03:37:11.025Z,99126.03
2022-11-02T03:40:11.819Z,99125.22
2022-11-02T03:42:42.398Z,99125.22
2022-11-02T03:45:16.009Z,99106.59
2022-11-02T03:47:49.377Z,99124.44
2022-11-02T03:50:20.560Z,99121.94
2022-11-02T03:52:53.629Z,99127.06
2022-11-02T03:55:28.479Z,99128.13
2022-11-02T03:57:55.314Z,99131.25
2022-11-02T04:00:29.429Z,99138.06
2022-11-02T04:03:09.357Z,99141.66
2022-11-02T04:05:41.217Z,99146.16
2022-11-02T04:08:46.897Z,99148.88
2022-11-02T04:11:33.948Z,99142.00
2022-11-02T04:14:27.303Z,99134.34
2022-11-02T04:17:15.210Z,99133.47
2022-11-02T04:19:49.691Z,99136.34
2022-11-02T04:22:37.214Z,99140.53
2022-11-02T04:25:18.737Z,99143.09
2022-11-02T04:27:54.808Z,99144.75
2022-11-02T04:30:29.649Z,99137.19
2022-11-02T04:33:17.594Z,99135.59
2022-11-02T04:35:50.435Z,99143.94
2022-11-02T04:38:37.006Z,99131.84
2022-11-02T04:41:22.164Z,99142.19
2022-11-02T04:43:51.551Z,99138.88
2022-11-02T04:46:20.249Z,99145.81
2022-11-02T04:48:48.404Z,99142.56
2022-11-02T04:51:15.578Z,99144.13
2022-11-02T04:53:42.329Z,99145.13
2022-11-02T04:56:11.102Z,99134.97
2022-11-02T04:58:38.238Z,99133.84
2022-11-02T05:01:11.916Z,99126.44
2022-11-02T05:03:38.602Z,99131.00
2022-11-02T05:06:05.878Z,99129.00
2022-11-02T05:08:32.989Z,99130.59
2022-11-02T05:11:00.136Z,99123.22
2022-11-02T05:13:28.798Z,99131.00
2022-11-02T05:15:59.725Z,99128.28
2022-11-02T05:18:27.939Z,99121.59
2022-11-02T05:20:58.776Z,99123.72
2022-11-02T05:23:28.752Z,99129.13
2022-11-02T05:26:04.376Z,99127.59
2022-11-02T05:28:33.140Z,99119.25
2022-11-02T05:31:01.193Z,99120.50
2022-11-02T05:33:31.476Z,99114.53
2022-11-02T05:36:01.075Z,99119.41
2022-11-02T05:38:29.936Z,99126.06
2022-11-02T05:40:59.648Z,99128.00
2022-11-02T05:43:30.342Z,99122.47
2022-11-02T05:46:01.614Z,99128.47
2022-11-02T05:48:31.795Z,99123.00
2022-11-02T05:51:00.721Z,99114.84
2022-11-02T05:53:28.525Z,99131.09
2022-11-02T05:56:00.070Z,99125.19
2022-11-02T05:58:27.726Z,99120.25
2022-11-02T06:00:54.373Z,99118.66
2022-11-02T06:03:21.093Z,99122.44
2022-11-02T06:05:47.714Z,99124.88
2022-11-02T06:08:14.568Z,99137.78
2022-11-02T06:10:43.414Z,99117.38
2022-11-02T06:13:10.149Z,99149.63
2022-11-02T06:15:36.704Z,99144.13
2022-11-02T06:18:03.565Z,99133.59
2022-11-02T06:20:30.150Z,99163.41
2022-11-02T06:22:56.790Z,99160.84
2022-11-02T06:25:23.377Z,99165.78
2022-11-02T06:27:52.260Z,99172.72
2022-11-02T06:30:19.984Z,99171.50
2022-11-02T06:32:48.279Z,99180.09
2022-11-02T06:35:15.817Z,99178.53
2022-11-02T06:37:42.503Z,99195.47
2022-11-02T06:40:09.671Z,99194.59
2022-11-02T06:42:44.823Z,99202.81
2022-11-02T06:45:17.352Z,99205.13
2022-11-02T06:47:43.907Z,99211.03
2022-11-02T06:50:10.738Z,99209.47
2022-11-02T06:52:45.845Z,99207.75
2022-11-02T06:55:14.309Z,99211.09
2022-11-02T06:57:42.443Z,99214.47
2022-11-02T07:00:20.791Z,99214.69
2022-11-02T07:03:04.991Z,99220.13
2022-11-02T07:05:32.564Z,99200.25
2022-11-02T07:07:59.397Z,99215.91
2022-11-02T07:10:26.859Z,99216.47
2022-11-02T07:12:57.600Z,99223.09
2022-11-02T07:15:26.155Z,99224.03
2022-11-02T07:17:53.118Z,99223.25
2022-11-02T07:20:20.516Z,99220.91
2022-11-02T07:23:00.503Z,99233.34
2022-11-02T07:25:32.675Z,99244.06
2022-11-02T07:28:01.151Z,99237.06
2022-11-02T07:30:31.377Z,99246.16
2022-11-02T07:32:58.266Z,99230.81
2022-11-02T07:35:25.285Z,99237.13
2022-11-02T07:37:56.752Z,99232.94
2022-11-02T07:40:23.450Z,99246.84
2022-11-02T07:42:50.023Z,99242.41
2022-11-02T07:45:21.514Z,99237.84
2022-11-02T07:47:48.963Z,99238.44
2022-11-02T07:50:18.233Z,99238.19
2022-11-02T07:52:52.535Z,99236.22
2022-11-02T07:55:24.409Z,99237.84
2022-11-02T07:57:59.876Z,99230.94
2022-11-02T08:00:28.944Z,99225.50
2022-11-02T08:02:57.595Z,99219.47
2022-11-02T08:05:25.458Z,99225.22
2022-11-02T08:07:59.528Z,99234.31
2022-11-02T08:10:27.561Z,99231.63
2022-11-02T08:12:55.041Z,99230.78
2022-11-02T08:15:21.823Z,99230.56
2022-11-02T08:17:48.450Z,99233.06
2022-11-02T08:20:15.951Z,99237.22
2022-11-02T08:22:42.498Z,99235.91
2022-11-02T08:25:09.408Z,99240.19
2022-11-02T08:27:36.313Z,99239.22
2022-11-02T08:30:03.393Z,99236.81
2022-11-02T08:32:30.009Z,99236.03
2022-11-02T08:34:56.609Z,99231.81
2022-11-02T08:37:23.157Z,99234.38
2022-11-02T08:39:50.026Z,99228.72
2022-11-02T08:42:17.371Z,99227.00
2022-11-02T08:44:44.076Z,99224.44
2022-11-02T08:47:10.757Z,99213.91
2022-11-02T08:49:37.582Z,99211.25
2022-11-02T08:52:04.167Z,99206.88
2022-11-02T08:54:30.829Z,99208.25
2022-11-02T08:56:57.467Z,99205.63
2022-11-02T08:59:24.168Z,99209.69
2022-11-02T09:01:50.888Z,99203.34
2022-11-02T09:04:17.699Z,99198.28
2022-11-02T09:06:44.292Z,99200.06
2022-11-02T09:09:11.077Z,99201.97
2022-11-02T09:11:38.188Z,99192.97
2022-11-02T09:14:04.839Z,99191.91
2022-11-02T09:16:31.517Z,99183.13
2022-11-02T09:18:58.148Z,99180.31
2022-11-02T09:21:24.760Z,99178.41
2022-11-02T09:23:51.426Z,99182.25
2022-11-02T09:26:18.036Z,99172.91
2022-11-02T09:28:44.676Z,99172.97
2022-11-02T09:31:11.923Z,99168.88
2022-11-02T09:33:38.972Z,99151.00
2022-11-02T09:36:06.443Z,99171.31
2022-11-02T09:38:33.232Z,99163.28
2022-11-02T09:40:59.715Z,99158.28
2022-11-02T09:43:50.346Z,99158.63
2022-11-02T09:46:21.882Z,99156.03
2022-11-02T09:48:51.076Z,99168.28
2022-11-02T09:51:25.105Z,99160.63
2022-11-02T09:54:16.230Z,99161.03
2022-11-02T09:56:44.949Z,99160.44
2022-11-02T09:59:20.572Z,99148.78
2022-11-02T10:01:59.764Z,99153.19
2022-11-02T10:04:53.647Z,99151.03
2022-11-02T10:07:34.527Z,99153.84
2022-11-02T10:10:11.263Z,99153.47
2022-11-02T10:12:58.649Z,99145.81
2022-11-02T10:15:29.900Z,99143.81
2022-11-02T10:17:58.845Z,99126.94
2022-11-02T10:20:28.497Z,99144.47
2022-11-02T10:23:03.674Z,99134.91
2022-11-02T10:25:30.638Z,99134.53
2022-11-02T10:28:05.394Z,99130.13
2022-11-02T10:30:32.277Z,99118.34
2022-11-02T10:32:59.843Z,99128.00
2022-11-02T10:35:45.818Z,99129.50
2022-11-02T10:38:54.402Z,99131.53
2022-11-02T10:41:30.868Z,99115.09
2022-11-02T10:44:12.767Z,99114.88
2022-11-02T10:47:13.178Z,99106.75
2022-11-02T10:49:56.659Z,99100.66
2022-11-02T10:52:23.506Z,99106.38
2022-11-02T10:54:50.986Z,99100.28
2022-11-02T10:57:23.840Z,99096.91
2022-11-02T11:00:37.006Z,99084.44
2022-11-02T11:03:09.508Z,99087.88
2022-11-02T11:05:43.644Z,99087.97
2022-11-02T11:08:36.509Z,99082.22
2022-11-02T11:11:31.541Z,99084.44
2022-11-02T11:16:55.422Z,99081.50
2022-11-02T11:22:25.688Z,99066.53
2022-11-02T11:24:54.135Z,99060.47
2022-11-02T11:27:21.881Z,99063.44
2022-11-02T11:29:59.742Z,99068.97
2022-11-02T11:32:30.437Z,99062.09
2022-11-02T11:35:04.901Z,99056.56
2022-11-02T11:37:31.850Z,99068.38
2022-11-02T11:40:17.960Z,99062.75
2022-11-02T11:42:45.047Z,99050.16
2022-11-02T11:45:22.528Z,99049.66
2022-11-02T11:47:55.786Z,99048.75
2022-11-02T11:50:26.267Z,99042.63
2022-11-02T11:53:14.959Z,99044.34
2022-11-02T11:55:52.507Z,99038.50
2022-11-02T11:58:29.271Z,99032.22
2022-11-02T12:01:10.526Z,99036.03
2022-11-02T12:04:07.909Z,99033.34
2022-11-02T12:06:49.295Z,99031.91
2022-11-02T12:09:34.035Z,99023.75
2022-11-02T12:12:06.749Z,99017.19
2022-11-02T12:14:41.884Z,99018.53
2022-11-02T12:17:28.752Z,99017.22
2022-11-02T12:20:18.873Z,99008.00
2022-11-02T12:23:10.531Z,99011.84
2022-11-02T12:25:58.282Z,98996.31
2022-11-02T12:28:56.169Z,98995.19
2022-11-02T12:31:31.921Z,98995.69
2022-11-02T12:34:32.561Z,98985.16
2022-11-02T12:37:38.983Z,98992.72
2022-11-02T12:40:15.398Z,98982.97
2022-11-02T12:42:56.299Z,98984.84
2022-11-02T12:45:50.663Z,98974.88
2022-11-02T12:48:38.678Z,98974.81
2022-11-02T12:51:41.319Z,98968.38
2022-11-02T12:54:15.971Z,98960.25
2022-11-02T12:56:50.389Z,98952.88
2022-11-02T12:59:28.822Z,98962.81
2022-11-02T13:02:21.842Z,98950.09
2022-11-02T13:05:01.346Z,98947.91
2022-11-02T13:07:41.315Z,98937.25
2022-11-02T13:10:22.089Z,98944.88
2022-11-02T13:12:55.977Z,98940.03
2022-11-02T13:15:27.177Z,98944.78
2022-11-02T13:18:05.639Z,98943.75
2022-11-02T13:21:00.081Z,98947.66
2022-11-02T13:23:47.269Z,98946.31
2022-11-02T13:26:38.075Z,98937.59
2022-11-02T13:29:10.724Z,98938.41
2022-11-02T13:31:51.372Z,98927.75
2022-11-02T13:34:42.870Z,98936.53
2022-11-02T13:37:22.967Z,98935.94
2022-11-02T13:39:54.449Z,98931.34
2022-11-02T13:43:06.965Z,98947.59
2022-11-02T13:45:56.430Z,98942.03
2022-11-02T13:48:50.871Z,98938.84
2022-11-02T13:51:37.899Z,98945.28
2022-11-02T13:54:16.633Z,98942.31
2022-11-02T13:56:43.876Z,98946.97
2022-11-02T13:59:21.302Z,98943.91
2022-11-02T14:01:48.877Z,98938.09
2022-11-02T14:04:16.467Z,98928.50
2022-11-02T14:06:45.024Z,98927.66
2022-11-02T14:09:24.383Z,98938.97
2022-11-02T14:11:51.832Z,98941.66
2022-11-02T14:14:20.174Z,98940.00
2022-11-02T14:16:49.865Z,98944.97
2022-11-02T14:19:19.182Z,98947.72
2022-11-02T14:21:54.871Z,98944.31
2022-11-02T14:24:33.521Z,98941.50
2022-11-02T14:27:07.315Z,98947.06
2022-11-02T14:29:44.798Z,98942.47
2022-11-02T14:32:17.400Z,98935.72
2022-11-02T14:35:04.306Z,98933.56
2022-11-02T14:37:49.860Z,98935.53
2022-11-02T14:40:28.288Z,98937.19
2022-11-02T14:43:40.303Z,98933.78
2022-11-02T14:46:19.123Z,98936.59
2022-11-02T14:48:54.589Z,98937.13
2022-11-02T14:51:27.338Z,98931.47
2022-11-02T14:53:58.608Z,98930.50
2022-11-02T14:56:57.384Z,98937.91
2022-11-02T14:59:30.258Z,98928.72
2022-11-02T15:02:03.713Z,98933.56
2022-11-02T15:04:33.753Z,98929.41
2022-11-02T15:07:03.311Z,98925.16
2022-11-02T15:09:56.229Z,98932.75
2022-11-02T15:12:43.161Z,98931.66
2022-11-02T15:15:30.218Z,98941.94
2022-11-02T15:17:56.778Z,98947.66
2022-11-02T15:20:30.196Z,98939.94
2022-11-02T15:23:30.081Z,98942.72
2022-11-02T15:25:59.285Z,98950.78
2022-11-02T15:28:29.798Z,98945.13
2022-11-02T15:31:01.800Z,98948.97
2022-11-02T15:33:42.370Z,98947.28
2022-11-02T15:36:28.377Z,98949.88
2022-11-02T15:38:55.461Z,98945.63
2022-11-02T15:41:47.963Z,98948.75
2022-11-02T15:44:20.469Z,98953.19
2022-11-02T15:46:58.899Z,98954.41
2022-11-02T15:49:43.944Z,98948.31
2022-11-02T15:52:21.653Z,98948.19
2022-11-02T15:55:18.875Z,98950.44
2022-11-02T15:58:19.187Z,98954.69
2022-11-02T16:01:24.843Z,98957.03
2022-11-02T16:03:59.194Z,98961.56
2022-11-02T16:06:36.967Z,98957.63
2022-11-02T16:09:30.060Z,98960.81
2022-11-02T16:12:21.028Z,98962.97
2022-11-02T16:14:58.433Z,98966.16
2022-11-02T16:17:31.624Z,98966.31
2022-11-02T16:20:20.524Z,98978.13
2022-11-02T16:22:51.758Z,98973.06
2022-11-02T16:25:35.123Z,98961.66
2022-11-02T16:28:33.166Z,98980.34
2022-11-02T16:31:18.638Z,98966.72
2022-11-02T16:33:48.173Z,98984.75
2022-11-02T16:36:22.017Z,98979.22
2022-11-02T16:38:58.605Z,98987.59
2022-11-02T16:41:30.643Z,98980.34
2022-11-02T16:44:03.678Z,98982.09
2022-11-02T16:46:42.386Z,98980.34
2022-11-02T16:49:19.997Z,98983.19
2022-11-02T16:51:52.382Z,98974.69
2022-11-02T16:54:44.417Z,98990.19
2022-11-02T16:57:12.899Z,98985.88
2022-11-02T17:00:01.238Z,98996.00
2022-11-02T17:02:30.764Z,98994.44
2022-11-02T17:05:02.357Z,99000.72
2022-11-02T17:07:45.050Z,99005.41
2022-11-02T17:10:25.690Z,99006.25
2022-11-02T17:12:53.189Z,99007.38
2022-11-02T17:15:25.939Z,99004.50
2022-11-02T17:18:08.449Z,99007.06
2022-11-02T17:20:37.579Z,99013.72
2022-11-02T17:23:10.632Z,99022.38
2022-11-02T17:25:39.668Z,99027.81
2022-11-02T17:28:45.382Z,99028.66
2022-11-02T17:31:24.507Z,99040.00
2022-11-02T17:33:52.045Z,99037.78
2022-11-02T17:36:18.949Z,99048.47
2022-11-02T17:38:46.073Z,99046.28
2022-11-02T17:41:37.341Z,99043.03
2022-11-02T17:44:04.621Z,99045.59
2022-11-02T17:46:31.548Z,99040.91
2022-11-02T17:48:58.245Z,99051.25
2022-11-02T17:51:25.707Z,99057.22
2022-11-02T17:53:52.667Z,99051.53
2022-11-02T17:56:19.256Z,99048.75
2022-11-02T17:58:45.980Z,99053.16
2022-11-02T18:01:13.790Z,99057.78
2022-11-02T18:03:40.657Z,99057.78
2022-11-02T18:06:07.699Z,99065.97
2022-11-02T18:08:54.700Z,99063.19
2022-11-02T18:11:26.014Z,99062.28
2022-11-02T18:13:53.361Z,99058.97
2022-11-02T18:16:20.080Z,99061.28
2022-11-02T18:18:46.721Z,99057.88
2022-11-02T18:21:13.387Z,99052.06
2022-11-02T18:23:41.169Z,99057.97
2022-11-02T18:26:11.286Z,99062.28
2022-11-02T18:28:38.295Z,99059.50
2022-11-02T18:31:08.941Z,99057.97
2022-11-02T18:33:35.637Z,99057.03
2022-11-02T18:36:07.608Z,99053.81
2022-11-02T18:38:34.615Z,99061.38
2022-11-02T18:41:27.210Z,99062.66
2022-11-02T18:44:00.542Z,99066.84
2022-11-02T18:46:32.073Z,99059.88
2022-11-02T18:48:58.759Z,99055.44
2022-11-02T18:51:25.700Z,99062.75
2022-11-02T18:53:56.316Z,99060.16
2022-11-02T18:56:23.095Z,99058.97
2022-11-02T18:58:51.120Z,99055.44
2022-11-02T19:01:21.826Z,99058.31
2022-11-02T19:03:53.646Z,99058.59
2022-11-02T19:06:39.485Z,99052.50
2022-11-02T19:09:19.428Z,99053.72
2022-11-02T19:11:49.763Z,99052.13
2022-11-02T19:14:17.703Z,99054.03
2022-11-02T19:16:44.627Z,99047.25
2022-11-02T19:19:11.344Z,99058.38
2022-11-02T19:21:38.019Z,99061.06
2022-11-02T19:24:06.239Z,99057.72
2022-11-02T19:26:34.119Z,99056.72
2022-11-02T19:29:04.928Z,99064.28
2022-11-02T19:31:33.616Z,99058.38
2022-11-02T19:34:00.243Z,99061.88
2022-11-02T19:36:27.652Z,99077.06
2022-11-02T19:38:54.262Z,99055.69
2022-11-02T19:41:21.852Z,99075.69
2022-11-02T19:43:48.554Z,99059.00
2022-11-02T19:46:17.828Z,99081.03
2022-11-02T19:48:44.785Z,99070.88
2022-11-02T19:51:19.088Z,99071.16
2022-11-02T19:53:48.463Z,99068.66
2022-11-02T19:56:16.340Z,99074.72
2022-11-02T19:58:47.706Z,99073.09
2022-11-02T20:01:23.155Z,99080.84
2022-11-02T20:03:50.738Z,99072.13
2022-11-02T20:06:23.345Z,99076.81
2022-11-02T20:08:54.895Z,99081.81
2022-11-02T20:11:22.676Z,99080.72
2022-11-02T20:13:50.372Z,99095.00
2022-11-02T20:16:19.362Z,99095.19
2022-11-02T20:18:50.241Z,99097.06
2022-11-02T20:21:18.346Z,99100.16
2022-11-02T20:23:46.090Z,99100.25
2022-11-02T20:26:19.212Z,99094.00
2022-11-02T20:28:49.779Z,99110.78
2022-11-02T20:31:19.973Z,99107.03
2022-11-02T20:33:47.041Z,99104.00
2022-11-02T20:36:14.571Z,99108.50
2022-11-02T20:38:41.337Z,99110.34
2022-11-02T20:41:13.701Z,99106.91
2022-11-02T20:43:42.494Z,99104.31
2022-11-02T20:46:36.081Z,99104.91
2022-11-02T20:49:08.568Z,99095.69
2022-11-02T20:51:46.963Z,99088.03
2022-11-02T20:54:14.029Z,99099.06
2022-11-02T20:56:40.745Z,99097.34
2022-11-02T20:59:07.401Z,99097.91
2022-11-02T21:01:34.950Z,99099.00
2022-11-02T21:04:01.874Z,99095.69
2022-11-02T21:06:28.555Z,99101.47
2022-11-02T21:08:55.423Z,99100.47
2022-11-02T21:11:40.495Z,99098.91
2022-11-02T21:14:07.373Z,99103.50
2022-11-02T21:16:34.257Z,99103.34
2022-11-02T21:19:00.989Z,99099.84
2022-11-02T21:21:28.015Z,99099.56
2022-11-02T21:23:55.454Z,99099.66
2022-11-02T21:26:21.989Z,99089.53
2022-11-02T21:28:48.629Z,99092.41
2022-11-02T21:31:19.346Z,99092.91
2022-11-02T21:33:47.407Z,99094.69
2022-11-02T21:36:15.295Z,99101.03
2022-11-02T21:38:42.172Z,99101.84
2022-11-02T21:41:09.328Z,99100.03
2022-11-02T21:43:37.505Z,99096.50
2022-11-02T21:46:06.051Z,99096.50
2022-11-02T21:48:35.242Z,99101.56
2022-11-02T21:51:13.071Z,99098.25
2022-11-02T21:53:41.550Z,99092.34
2022-11-02T21:56:15.684Z,99098.53
2022-11-02T21:58:46.000Z,99096.84
2022-11-02T22:01:40.339Z,99096.50
2022-11-02T22:04:07.993Z,99092.75
2022-11-02T22:06:37.507Z,99094.31
2022-11-02T22:09:06.907Z,99099.84
2022-11-02T22:11:34.705Z,99101.03
2022-11-02T22:14:02.418Z,99103.78
2022-11-02T22:16:40.364Z,99100.16
2022-11-02T22:19:12.480Z,99108.31
2022-11-02T22:21:41.759Z,99104.81
2022-11-02T22:24:09.322Z,99098.00
2022-11-02T22:26:37.403Z,99092.66
2022-11-02T22:29:04.804Z,99095.31
2022-11-02T22:31:39.310Z,99091.56
2022-11-02T22:34:08.019Z,99086.09
2022-11-02T22:36:35.413Z,99092.28
2022-11-02T22:39:04.238Z,99083.06
2022-11-02T22:41:30.748Z,99086.38
2022-11-02T22:43:59.956Z,99083.06
2022-11-02T22:46:27.495Z,99078.03
2022-11-02T22:48:57.011Z,99086.44
2022-11-02T22:51:26.291Z,99087.28
2022-11-02T22:53:53.600Z,99097.59
2022-11-02T22:56:22.397Z,99095.38
2022-11-02T22:58:49.886Z,99090.38
2022-11-02T23:01:21.975Z,99090.38
2022-11-02T23:03:48.943Z,99081.34
2022-11-02T23:06:16.924Z,99085.22
2022-11-02T23:08:48.150Z,99079.91
2022-11-02T23:11:23.792Z,99079.81
2022-11-02T23:13:54.397Z,99085.22
2022-11-02T23:16:24.522Z,99079.31
2022-11-02T23:19:11.073Z,99078.50
2022-11-02T23:21:48.886Z,99074.25
2022-11-02T23:24:36.146Z,99078.50
2022-11-02T23:27:03.584Z,99081.06
2022-11-02T23:29:48.776Z,99072.13
2022-11-02T23:32:26.394Z,99074.56
2022-11-02T23:35:13.130Z,99075.41
2022-11-02T23:37:40.222Z,99070.56
2022-11-02T23:40:07.247Z,99068.91
2022-11-02T23:42:33.977Z,99062.72
2022-11-02T23:45:00.574Z,99070.09
2022-11-02T23:47:49.727Z,99062.03
2022-11-02T23:50:36.490Z,99065.47
2022-11-02T23:53:22.880Z,99063.78
2022-11-02T23:56:10.156Z,99062.22
2022-11-02T23:58:37.920Z,99054.00
